createdAt,value
2018-08-24T00:00:17.881Z,63.06
2018-08-24T00:01:17.801Z,63.08
2018-08-24T00:02:17.896Z,63.05
2018-08-24T00:03:17.808Z,63.1
2018-08-24T00:04:17.748Z,63.05
2018-08-24T00:05:17.732Z,63.07
2018-08-24T00:06:17.770Z,63.08
2018-08-24T00:07:18.248Z,63.04
2018-08-24T00:08:17.958Z,63.09
2018-08-24T00:09:17.846Z,63.05
2018-08-24T00:10:17.767Z,63.07
2018-08-24T00:11:17.719Z,63.11
2018-08-24T00:12:17.821Z,63.07
2018-08-24T00:13:17.975Z,63.07
2018-08-24T00:14:17.760Z,63.08
2018-08-24T00:15:17.823Z,63.11
2018-08-24T00:16:17.702Z,63.11
2018-08-24T00:17:17.816Z,63.09
2018-08-24T00:18:17.798Z,63.1
2018-08-24T00:19:17.868Z,63.1
2018-08-24T00:20:17.884Z,63.08
2018-08-24T00:21:17.950Z,63.11
2018-08-24T00:22:17.714Z,63.08
2018-08-24T00:23:18.053Z,63.1
2018-08-24T00:24:17.766Z,63.12
2018-08-24T00:25:17.788Z,63.13
2018-08-24T00:26:17.951Z,63.09
2018-08-24T00:27:18.039Z,63.1
2018-08-24T00:28:17.695Z,63.11
2018-08-24T00:29:17.875Z,63.11
2018-08-24T00:30:17.918Z,63.12
2018-08-24T00:31:17.947Z,63.11
2018-08-24T00:32:17.713Z,63.13
2018-08-24T00:33:17.814Z,63.13
2018-08-24T00:34:17.951Z,63.13
2018-08-24T00:35:17.838Z,63.14
2018-08-24T00:36:17.830Z,63.12
2018-08-24T00:37:17.816Z,63.11
2018-08-24T00:38:17.809Z,63.13
2018-08-24T00:39:18.005Z,63.08
2018-08-24T00:40:17.678Z,63.12
2018-08-24T00:41:17.806Z,63.12
2018-08-24T00:42:17.734Z,63.1
2018-08-24T00:43:17.893Z,63.11
2018-08-24T00:44:18.135Z,63.09
2018-08-24T00:45:17.891Z,63.12
2018-08-24T00:46:17.917Z,63.11
2018-08-24T00:47:17.728Z,63.1
2018-08-24T00:48:17.750Z,63.07
2018-08-24T00:49:18.233Z,63.07
2018-08-24T00:50:17.762Z,63.07
2018-08-24T00:51:17.853Z,63.08
2018-08-24T00:52:17.873Z,63.06
2018-08-24T00:53:17.789Z,63.08
2018-08-24T00:54:17.818Z,63.13
2018-08-24T00:55:17.953Z,63.09
2018-08-24T00:56:17.710Z,63.09
2018-08-24T00:57:17.707Z,63.09
2018-08-24T00:58:18.125Z,63.12
2018-08-24T00:59:17.891Z,63.11
2018-08-24T01:00:17.837Z,63.13
2018-08-24T01:01:17.795Z,63.15
2018-08-24T01:02:17.955Z,63.07
2018-08-24T01:03:18.109Z,63.11
2018-08-24T01:04:17.879Z,63.13
2018-08-24T01:05:17.800Z,63.14
2018-08-24T01:06:17.957Z,63.09
2018-08-24T01:07:17.623Z,63.11
2018-08-24T01:08:17.681Z,63.13
2018-08-24T01:09:17.739Z,63.1
2018-08-24T01:10:17.790Z,63.13
2018-08-24T01:11:17.925Z,63.12
2018-08-24T01:12:17.625Z,63.12
2018-08-24T01:13:17.829Z,63.1
2018-08-24T01:14:17.853Z,63.11
2018-08-24T01:15:17.865Z,63.16
2018-08-24T01:16:17.764Z,63.16
2018-08-24T01:17:17.719Z,63.13
2018-08-24T01:18:17.825Z,63.13
2018-08-24T01:19:17.815Z,63.13
2018-08-24T01:20:18.012Z,63.12
2018-08-24T01:21:17.735Z,63.12
2018-08-24T01:22:17.860Z,63.13
2018-08-24T01:23:17.783Z,63.11
2018-08-24T01:24:17.924Z,63.14
2018-08-24T01:25:17.950Z,63.14
2018-08-24T01:26:17.863Z,63.16
2018-08-24T01:27:17.818Z,63.1
2018-08-24T01:28:18.173Z,63.14
2018-08-24T01:29:17.657Z,63.14
2018-08-24T01:30:17.734Z,63.11
2018-08-24T01:31:17.767Z,63.16
2018-08-24T01:32:17.763Z,63.14
2018-08-24T01:33:17.858Z,63.13
2018-08-24T01:34:18.098Z,63.14
2018-08-24T01:35:17.859Z,63.13
2018-08-24T01:36:17.681Z,63.1
2018-08-24T01:37:17.692Z,63.12
2018-08-24T01:38:17.739Z,63.1
2018-08-24T01:39:17.639Z,63.14
2018-08-24T01:40:17.768Z,63.13
2018-08-24T01:41:17.892Z,63.13
2018-08-24T01:42:17.754Z,63.13
2018-08-24T01:43:17.865Z,63.11
2018-08-24T01:44:18.292Z,63.09
2018-08-24T01:45:17.871Z,63.13
2018-08-24T01:46:17.977Z,63.09
2018-08-24T01:47:17.643Z,63.15
2018-08-24T01:48:17.956Z,63.1
2018-08-24T01:49:17.899Z,63.13
2018-08-24T01:50:17.868Z,63.11
2018-08-24T01:51:17.795Z,63.13
2018-08-24T01:52:17.835Z,63.13
2018-08-24T01:53:17.838Z,63.13
2018-08-24T01:54:17.736Z,63.16
2018-08-24T01:55:17.851Z,63.11
2018-08-24T01:56:17.926Z,63.13
2018-08-24T01:57:17.889Z,63.13
2018-08-24T01:58:17.894Z,63.13
2018-08-24T01:59:17.931Z,63.16
2018-08-24T02:00:17.922Z,63.18
2018-08-24T02:01:18.206Z,63.17
2018-08-24T02:02:17.795Z,63.16
2018-08-24T02:03:17.759Z,63.16
2018-08-24T02:04:17.786Z,63.16
2018-08-24T02:05:17.749Z,63.15
2018-08-24T02:06:17.868Z,63.11
2018-08-24T02:07:18.057Z,63.14
2018-08-24T02:08:17.790Z,63.15
2018-08-24T02:09:17.606Z,63.15
2018-08-24T02:10:17.700Z,63.12
2018-08-24T02:11:17.945Z,63.17
2018-08-24T02:12:17.829Z,63.16
2018-08-24T02:13:18.115Z,63.11
2018-08-24T02:14:18.396Z,63.14
2018-08-24T02:15:17.899Z,63.15
2018-08-24T02:16:17.756Z,63.15
2018-08-24T02:17:18.205Z,63.16
2018-08-24T02:18:17.987Z,63.13
2018-08-24T02:19:17.758Z,63.11
2018-08-24T02:20:17.758Z,63.12
2018-08-24T02:21:17.901Z,63.13
2018-08-24T02:22:17.830Z,63.14
2018-08-24T02:23:18.173Z,63.12
2018-08-24T02:24:17.724Z,63.11
2018-08-24T02:25:17.770Z,63.15
2018-08-24T02:26:17.681Z,63.1
2018-08-24T02:27:17.722Z,63.1
2018-08-24T02:28:17.872Z,63.12
2018-08-24T02:29:17.614Z,63.14
2018-08-24T02:30:17.801Z,63.14
2018-08-24T02:31:18.990Z,63.13
2018-08-24T02:32:17.945Z,63.17
2018-08-24T02:33:17.789Z,63.17
2018-08-24T02:34:18.150Z,63.16
2018-08-24T02:35:17.886Z,63.16
2018-08-24T02:36:18.162Z,63.16
2018-08-24T02:37:17.901Z,63.12
2018-08-24T02:38:17.790Z,63.14
2018-08-24T02:39:17.656Z,63.17
2018-08-24T02:40:17.843Z,63.17
2018-08-24T02:41:17.778Z,63.13
2018-08-24T02:42:18.194Z,63.15
2018-08-24T02:43:17.872Z,63.16
2018-08-24T02:44:17.780Z,63.13
2018-08-24T02:45:17.810Z,63.19
2018-08-24T02:46:17.976Z,63.18
2018-08-24T02:47:17.763Z,63.15
2018-08-24T02:48:17.866Z,63.14
2018-08-24T02:49:17.835Z,63.18
2018-08-24T02:50:17.772Z,63.16
2018-08-24T02:51:17.687Z,63.16
2018-08-24T02:52:17.827Z,63.16
2018-08-24T02:53:17.669Z,63.17
2018-08-24T02:54:17.747Z,63.15
2018-08-24T02:55:17.654Z,63.15
2018-08-24T02:56:17.951Z,63.15
2018-08-24T02:57:17.800Z,63.16
2018-08-24T02:58:17.789Z,63.15
2018-08-24T02:59:17.893Z,63.16
2018-08-24T03:00:17.739Z,63.18
2018-08-24T03:01:17.750Z,63.18
2018-08-24T03:02:17.833Z,63.16
2018-08-24T03:03:18.049Z,63.18
2018-08-24T03:04:17.842Z,63.16
2018-08-24T03:05:19.744Z,63.18
2018-08-24T03:06:17.727Z,63.17
2018-08-24T03:07:17.889Z,63.17
2018-08-24T03:08:18.552Z,63.18
2018-08-24T03:09:17.698Z,63.18
2018-08-24T03:10:17.702Z,63.17
2018-08-24T03:11:18.032Z,63.19
2018-08-24T03:12:17.759Z,63.18
2018-08-24T03:13:17.678Z,63.13
2018-08-24T03:14:18.041Z,63.13
2018-08-24T03:15:17.883Z,63.15
2018-08-24T03:16:18.138Z,63.15
2018-08-24T03:17:17.774Z,63.09
2018-08-24T03:18:17.766Z,63.17
2018-08-24T03:19:17.890Z,63.15
2018-08-24T03:20:18.043Z,63.18
2018-08-24T03:21:17.839Z,63.15
2018-08-24T03:22:17.804Z,63.12
2018-08-24T03:23:17.718Z,63.19
2018-08-24T03:24:17.883Z,63.17
2018-08-24T03:25:17.893Z,63.14
2018-08-24T03:26:17.803Z,63.19
2018-08-24T03:27:17.793Z,63.16
2018-08-24T03:28:17.671Z,63.18
2018-08-24T03:29:17.848Z,63.19
2018-08-24T03:30:17.730Z,63.16
2018-08-24T03:31:17.737Z,63.19
2018-08-24T03:32:18.284Z,63.13
2018-08-24T03:33:17.933Z,63.18
2018-08-24T03:34:17.755Z,63.18
2018-08-24T03:35:17.822Z,63.19
2018-08-24T03:36:17.744Z,63.18
2018-08-24T03:37:17.638Z,63.18
2018-08-24T03:38:17.765Z,63.18
2018-08-24T03:39:17.846Z,63.16
2018-08-24T03:40:17.834Z,63.18
2018-08-24T03:41:17.633Z,63.21
2018-08-24T03:42:17.807Z,63.22
2018-08-24T03:43:17.780Z,63.2
2018-08-24T03:44:17.827Z,63.21
2018-08-24T03:45:17.782Z,63.18
2018-08-24T03:46:17.718Z,63.18
2018-08-24T03:47:17.862Z,63.17
2018-08-24T03:48:17.768Z,63.18
2018-08-24T03:49:17.683Z,63.21
2018-08-24T03:50:17.844Z,63.19
2018-08-24T03:51:17.924Z,63.22
2018-08-24T03:52:17.690Z,63.19
2018-08-24T03:53:18.678Z,63.21
2018-08-24T03:54:17.815Z,63.22
2018-08-24T03:55:17.901Z,63.19
2018-08-24T03:56:17.946Z,63.22
2018-08-24T03:57:17.767Z,63.22
2018-08-24T03:58:17.746Z,63.24
2018-08-24T03:59:17.961Z,63.21
2018-08-24T04:00:17.770Z,63.19
2018-08-24T04:01:17.846Z,63.22
2018-08-24T04:02:17.927Z,63.22
2018-08-24T04:03:17.755Z,63.24
2018-08-24T04:04:17.791Z,63.21
2018-08-24T04:05:17.770Z,63.23
2018-08-24T04:06:17.778Z,63.25
2018-08-24T04:07:17.830Z,63.19
2018-08-24T04:08:17.720Z,63.18
2018-08-24T04:09:17.825Z,63.21
2018-08-24T04:10:17.777Z,63.24
2018-08-24T04:11:17.724Z,63.22
2018-08-24T04:12:17.743Z,63.21
2018-08-24T04:13:17.670Z,63.19
2018-08-24T04:14:17.571Z,63.18
2018-08-24T04:15:17.661Z,63.17
2018-08-24T04:16:17.758Z,63.21
2018-08-24T04:17:17.670Z,63.23
2018-08-24T04:18:17.654Z,63.21
2018-08-24T04:19:18.291Z,63.24
2018-08-24T04:20:18.136Z,63.19
2018-08-24T04:21:17.759Z,63.24
2018-08-24T04:22:17.760Z,63.25
2018-08-24T04:23:17.822Z,63.21
2018-08-24T04:24:17.727Z,63.23
2018-08-24T04:25:17.560Z,63.25
2018-08-24T04:26:17.743Z,63.23
2018-08-24T04:27:17.733Z,63.22
2018-08-24T04:28:17.813Z,63.24
2018-08-24T04:29:17.786Z,63.23
2018-08-24T04:30:17.582Z,63.23
2018-08-24T04:31:17.895Z,63.27
2018-08-24T04:32:17.904Z,63.25
2018-08-24T04:33:17.964Z,63.24
2018-08-24T04:34:17.826Z,63.22
2018-08-24T04:35:17.851Z,63.23
2018-08-24T04:36:17.686Z,63.23
2018-08-24T04:37:17.651Z,63.22
2018-08-24T04:38:17.771Z,63.23
2018-08-24T04:39:17.849Z,63.18
2018-08-24T04:40:18.980Z,63.19
2018-08-24T04:41:17.751Z,63.19
2018-08-24T04:42:17.850Z,63.22
2018-08-24T04:43:17.787Z,63.22
2018-08-24T04:44:18.040Z,63.2
2018-08-24T04:45:17.839Z,63.22
2018-08-24T04:46:17.725Z,63.21
2018-08-24T04:47:17.615Z,63.21
2018-08-24T04:48:17.716Z,63.2
2018-08-24T04:49:17.735Z,63.24
2018-08-24T04:50:18.180Z,63.2
2018-08-24T04:51:18.286Z,63.2
2018-08-24T04:52:17.887Z,63.22
2018-08-24T04:53:17.671Z,63.22
2018-08-24T04:54:17.936Z,63.17
2018-08-24T04:55:17.713Z,63.21
2018-08-24T04:56:17.873Z,63.22
2018-08-24T04:57:17.929Z,63.2
2018-08-24T04:58:18.587Z,63.18
2018-08-24T04:59:17.813Z,63.21
2018-08-24T05:00:17.893Z,63.19
2018-08-24T05:01:17.646Z,63.18
2018-08-24T05:02:17.919Z,63.19
2018-08-24T05:03:18.132Z,63.16
2018-08-24T05:04:17.802Z,63.22
2018-08-24T05:05:17.881Z,63.18
2018-08-24T05:06:17.821Z,63.21
2018-08-24T05:07:17.850Z,63.22
2018-08-24T05:08:18.293Z,63.19
2018-08-24T05:09:17.798Z,63.22
2018-08-24T05:10:17.913Z,63.21
2018-08-24T05:11:17.692Z,63.18
2018-08-24T05:12:17.824Z,63.19
2018-08-24T05:13:17.792Z,63.16
2018-08-24T05:14:17.740Z,63.19
2018-08-24T05:15:17.778Z,63.19
2018-08-24T05:16:17.868Z,63.2
2018-08-24T05:17:17.849Z,63.15
2018-08-24T05:18:17.871Z,63.22
2018-08-24T05:19:17.856Z,63.21
2018-08-24T05:20:17.799Z,63.2
2018-08-24T05:21:18.384Z,63.2
2018-08-24T05:22:17.909Z,63.22
2018-08-24T05:23:17.731Z,63.19
2018-08-24T05:24:17.845Z,63.19
2018-08-24T05:25:17.832Z,63.19
2018-08-24T05:26:17.992Z,63.17
2018-08-24T05:27:17.810Z,63.16
2018-08-24T05:28:17.907Z,63.19
2018-08-24T05:29:17.679Z,63.18
2018-08-24T05:30:17.709Z,63.17
2018-08-24T05:31:17.864Z,63.18
2018-08-24T05:32:17.779Z,63.16
2018-08-24T05:33:17.787Z,63.18
2018-08-24T05:34:18.013Z,63.18
2018-08-24T05:35:17.613Z,63.18
2018-08-24T05:36:17.791Z,63.18
2018-08-24T05:37:18.021Z,63.17
2018-08-24T05:38:17.635Z,63.16
2018-08-24T05:39:17.737Z,63.15
2018-08-24T05:40:17.692Z,63.18
2018-08-24T05:41:18.245Z,63.19
2018-08-24T05:42:17.836Z,63.19
2018-08-24T05:43:17.758Z,63.15
2018-08-24T05:44:17.782Z,63.17
2018-08-24T05:45:17.703Z,63.16
2018-08-24T05:46:17.650Z,63.19
2018-08-24T05:47:17.821Z,63.23
2018-08-24T05:48:17.812Z,63.22
2018-08-24T05:49:17.828Z,63.2
2018-08-24T05:50:17.824Z,63.17
2018-08-24T05:51:17.827Z,63.2
2018-08-24T05:52:17.668Z,63.2
2018-08-24T05:53:17.839Z,63.18
2018-08-24T05:54:17.909Z,63.23
2018-08-24T05:55:17.946Z,63.23
2018-08-24T05:56:17.876Z,63.19
2018-08-24T05:57:17.840Z,63.24
2018-08-24T05:58:17.695Z,63.19
2018-08-24T05:59:17.842Z,63.2
2018-08-24T06:00:17.628Z,63.18
2018-08-24T06:01:17.892Z,63.23
2018-08-24T06:02:17.782Z,63.21
2018-08-24T06:03:17.727Z,63.2
2018-08-24T06:04:17.645Z,63.21
2018-08-24T06:05:17.781Z,63.18
2018-08-24T06:06:17.602Z,63.21
2018-08-24T06:07:18.022Z,63.17
2018-08-24T06:08:17.817Z,63.23
2018-08-24T06:09:17.866Z,63.21
2018-08-24T06:10:17.673Z,63.22
2018-08-24T06:11:17.916Z,63.18
2018-08-24T06:12:17.906Z,63.19
2018-08-24T06:13:17.996Z,63.19
2018-08-24T06:14:17.912Z,63.22
2018-08-24T06:15:18.542Z,63.22
2018-08-24T06:16:18.173Z,63.21
2018-08-24T06:17:17.890Z,63.21
2018-08-24T06:18:17.979Z,63.2
2018-08-24T06:19:17.834Z,63.22
2018-08-24T06:20:17.807Z,63.2
2018-08-24T06:21:17.836Z,63.27
2018-08-24T06:22:17.848Z,63.21
2018-08-24T06:23:17.771Z,63.22
2018-08-24T06:24:18.211Z,63.2
2018-08-24T06:25:17.865Z,63.21
2018-08-24T06:26:17.861Z,63.21
2018-08-24T06:27:17.868Z,63.24
2018-08-24T06:28:17.734Z,63.24
2018-08-24T06:29:18.300Z,63.22
2018-08-24T06:30:17.643Z,63.21
2018-08-24T06:31:17.850Z,63.21
2018-08-24T06:32:18.018Z,63.19
2018-08-24T06:33:17.791Z,63.17
2018-08-24T06:34:17.883Z,63.22
2018-08-24T06:35:17.972Z,63.23
2018-08-24T06:36:17.647Z,63.18
2018-08-24T06:37:17.795Z,63.22
2018-08-24T06:38:17.881Z,63.22
2018-08-24T06:39:17.782Z,63.18
2018-08-24T06:40:18.312Z,63.24
2018-08-24T06:41:17.597Z,63.19
2018-08-24T06:42:17.767Z,63.23
2018-08-24T06:43:18.381Z,63.22
2018-08-24T06:44:17.741Z,63.22
2018-08-24T06:45:17.902Z,63.24
2018-08-24T06:46:17.733Z,63.19
2018-08-24T06:47:18.272Z,63.24
2018-08-24T06:48:17.902Z,63.2
2018-08-24T06:49:17.770Z,63.21
2018-08-24T06:50:17.714Z,63.23
2018-08-24T06:51:17.986Z,63.2
2018-08-24T06:52:17.646Z,63.22
2018-08-24T06:53:19.860Z,63.2
2018-08-24T06:54:17.751Z,63.25
2018-08-24T06:55:17.662Z,63.21
2018-08-24T06:56:17.746Z,63.24
2018-08-24T06:57:17.645Z,63.22
2018-08-24T06:58:17.696Z,63.24
2018-08-24T06:59:18.043Z,63.22
2018-08-24T07:00:17.841Z,63.22
2018-08-24T07:01:18.055Z,63.23
2018-08-24T07:02:17.731Z,63.23
2018-08-24T07:03:17.583Z,63.22
2018-08-24T07:04:17.932Z,63.2
2018-08-24T07:05:17.791Z,63.22
2018-08-24T07:06:17.708Z,63.21
2018-08-24T07:07:17.635Z,63.23
2018-08-24T07:08:18.041Z,63.22
2018-08-24T07:09:18.111Z,63.21
2018-08-24T07:10:17.855Z,63.18
2018-08-24T07:11:17.956Z,63.2
2018-08-24T07:12:17.875Z,63.18
2018-08-24T07:13:18.049Z,63.23
2018-08-24T07:14:17.531Z,63.21
2018-08-24T07:15:17.887Z,63.18
2018-08-24T07:16:17.795Z,63.2
2018-08-24T07:17:17.890Z,63.23
2018-08-24T07:18:17.876Z,63.18
2018-08-24T07:19:17.849Z,63.21
2018-08-24T07:20:17.766Z,63.2
2018-08-24T07:21:17.807Z,63.2
2018-08-24T07:22:17.637Z,63.2
2018-08-24T07:23:17.890Z,63.2
2018-08-24T07:24:17.768Z,63.24
2018-08-24T07:25:18.737Z,63.22
2018-08-24T07:26:17.737Z,63.19
2018-08-24T07:27:17.837Z,63.22
2018-08-24T07:28:18.096Z,63.22
2018-08-24T07:29:18.014Z,63.21
2018-08-24T07:30:17.961Z,63.22
2018-08-24T07:31:18.070Z,63.2
2018-08-24T07:32:18.028Z,63.19
2018-08-24T07:33:17.838Z,63.18
2018-08-24T07:34:17.805Z,63.18
2018-08-24T07:35:17.973Z,63.21
2018-08-24T07:36:17.558Z,63.18
2018-08-24T07:37:17.830Z,63.2
2018-08-24T07:38:17.872Z,63.23
2018-08-24T07:39:17.875Z,63.22
2018-08-24T07:40:17.701Z,63.19
2018-08-24T07:41:18.593Z,63.13
2018-08-24T07:42:17.796Z,63.06
2018-08-24T07:43:17.846Z,63.12
2018-08-24T07:44:17.904Z,63.31
2018-08-24T07:45:17.781Z,63.37
2018-08-24T07:46:17.853Z,63.24
2018-08-24T07:47:17.555Z,63.36
2018-08-24T07:48:17.929Z,63.36
2018-08-24T07:49:17.779Z,63.38
2018-08-24T07:50:17.689Z,63.28
2018-08-24T07:51:18.108Z,63.29
2018-08-24T07:52:17.975Z,63.35
2018-08-24T07:53:17.799Z,63.3
2018-08-24T07:54:17.875Z,63.36
2018-08-24T07:55:17.776Z,63.31
2018-08-24T07:56:17.777Z,63.34
2018-08-24T07:57:17.872Z,63.32
2018-08-24T07:58:17.583Z,63.32
2018-08-24T07:59:17.560Z,63.31
2018-08-24T08:00:17.755Z,63.39
2018-08-24T08:01:17.837Z,63.36
2018-08-24T08:02:17.860Z,63.34
2018-08-24T08:03:17.616Z,63.29
2018-08-24T08:04:17.779Z,63.25
2018-08-24T08:05:18.320Z,63.22
2018-08-24T08:06:18.194Z,63.23
2018-08-24T08:07:17.737Z,63.24
2018-08-24T08:08:17.852Z,63.25
2018-08-24T08:09:17.554Z,63.26
2018-08-24T08:10:17.796Z,63.21
2018-08-24T08:11:17.767Z,63.17
2018-08-24T08:12:17.810Z,63.15
2018-08-24T08:13:17.754Z,63.19
2018-08-24T08:14:17.880Z,63.21
2018-08-24T08:15:17.680Z,63.2
2018-08-24T08:16:17.620Z,63.16
2018-08-24T08:17:17.738Z,63.21
2018-08-24T08:18:18.890Z,63.18
2018-08-24T08:19:17.675Z,63.21
2018-08-24T08:20:17.642Z,63.18
2018-08-24T08:21:17.663Z,63.16
2018-08-24T08:22:17.674Z,63.18
2018-08-24T08:23:17.844Z,63.16
2018-08-24T08:24:17.858Z,63.14
2018-08-24T08:25:17.602Z,63.13
2018-08-24T08:26:17.692Z,63.12
2018-08-24T08:27:17.809Z,63.15
2018-08-24T08:28:17.858Z,63.12
2018-08-24T08:29:17.690Z,63.13
2018-08-24T08:30:17.890Z,63.08
2018-08-24T08:31:17.865Z,63.09
2018-08-24T08:32:17.817Z,63.1
2018-08-24T08:33:17.848Z,63.07
2018-08-24T08:34:17.955Z,63.07
2018-08-24T08:35:17.946Z,63.07
2018-08-24T08:36:17.876Z,63.07
2018-08-24T08:37:17.866Z,63.07
2018-08-24T08:38:17.875Z,63.1
2018-08-24T08:39:17.836Z,63.05
2018-08-24T08:40:17.951Z,63.03
2018-08-24T08:41:17.653Z,63.07
2018-08-24T08:42:17.618Z,63.05
2018-08-24T08:43:18.247Z,63.04
2018-08-24T08:44:17.697Z,63.04
2018-08-24T08:45:18.172Z,63.02
2018-08-24T08:46:17.656Z,63
2018-08-24T08:47:17.643Z,63.02
2018-08-24T08:48:18.204Z,63.02
2018-08-24T08:49:17.924Z,62.98
2018-08-24T08:50:17.872Z,62.98
2018-08-24T08:51:17.834Z,63
2018-08-24T08:52:17.806Z,63.02
2018-08-24T08:53:17.837Z,63
2018-08-24T08:54:17.848Z,63.02
2018-08-24T08:55:18.012Z,63.02
2018-08-24T08:56:17.613Z,63.01
2018-08-24T08:57:17.825Z,63.01
2018-08-24T08:58:17.822Z,63.02
2018-08-24T08:59:17.949Z,63.02
2018-08-24T09:00:17.569Z,63.02
2018-08-24T09:01:17.764Z,63
2018-08-24T09:02:17.833Z,62.99
2018-08-24T09:03:17.953Z,63.01
2018-08-24T09:04:17.650Z,62.97
2018-08-24T09:05:17.839Z,62.99
2018-08-24T09:06:18.305Z,62.99
2018-08-24T09:07:17.842Z,62.98
2018-08-24T09:08:17.610Z,62.98
2018-08-24T09:09:17.812Z,62.98
2018-08-24T09:10:17.772Z,62.99
2018-08-24T09:11:17.784Z,62.91
2018-08-24T09:12:17.868Z,62.96
2018-08-24T09:13:17.856Z,62.96
2018-08-24T09:14:18.144Z,62.94
2018-08-24T09:15:17.616Z,62.94
2018-08-24T09:16:17.791Z,62.96
2018-08-24T09:17:17.875Z,62.95
2018-08-24T09:18:18.050Z,62.96
2018-08-24T09:19:17.858Z,62.95
2018-08-24T09:20:17.819Z,62.96
2018-08-24T09:21:17.691Z,62.92
2018-08-24T09:22:17.911Z,62.95
2018-08-24T09:23:18.164Z,62.91
2018-08-24T09:24:17.888Z,62.96
2018-08-24T09:25:18.140Z,62.92
2018-08-24T09:26:17.617Z,62.89
2018-08-24T09:27:17.667Z,62.91
2018-08-24T09:28:17.696Z,62.92
2018-08-24T09:29:17.587Z,62.91
2018-08-24T09:30:17.790Z,62.91
2018-08-24T09:31:17.712Z,62.89
2018-08-24T09:32:18.037Z,62.91
2018-08-24T09:33:17.775Z,62.89
2018-08-24T09:34:17.712Z,62.87
2018-08-24T09:35:17.664Z,62.9
2018-08-24T09:36:17.813Z,62.94
2018-08-24T09:37:17.531Z,62.88
2018-08-24T09:38:17.654Z,62.86
2018-08-24T09:39:17.741Z,62.91
2018-08-24T09:40:17.823Z,62.87
2018-08-24T09:41:17.699Z,62.92
2018-08-24T09:42:17.769Z,62.9
2018-08-24T09:43:17.788Z,62.92
2018-08-24T09:44:17.777Z,62.93
2018-08-24T09:45:17.685Z,62.86
2018-08-24T09:46:17.779Z,62.88
2018-08-24T09:47:17.658Z,62.91
2018-08-24T09:48:17.682Z,62.92
2018-08-24T09:49:17.831Z,62.93
2018-08-24T09:50:18.030Z,62.89
2018-08-24T09:51:17.964Z,62.9
2018-08-24T09:52:18.192Z,62.93
2018-08-24T09:53:17.947Z,62.91
2018-08-24T09:54:17.771Z,62.87
2018-08-24T09:55:17.944Z,62.91
2018-08-24T09:56:17.975Z,62.85
2018-08-24T09:57:17.596Z,62.9
2018-08-24T09:58:17.654Z,62.89
2018-08-24T09:59:17.810Z,62.89
2018-08-24T10:00:17.976Z,62.86
2018-08-24T10:01:17.856Z,62.88
2018-08-24T10:02:17.640Z,62.87
2018-08-24T10:03:17.797Z,62.87
2018-08-24T10:04:17.944Z,62.87
2018-08-24T10:05:18.468Z,62.86
2018-08-24T10:06:18.493Z,62.89
2018-08-24T10:07:17.960Z,62.85
2018-08-24T10:08:18.087Z,62.87
2018-08-24T10:09:17.960Z,62.87
2018-08-24T10:10:17.572Z,62.87
2018-08-24T10:11:17.692Z,62.89
2018-08-24T10:12:17.992Z,62.9
2018-08-24T10:13:18.612Z,62.86
2018-08-24T10:14:17.848Z,62.9
2018-08-24T10:15:17.619Z,62.89
2018-08-24T10:16:17.727Z,62.89
2018-08-24T10:17:17.785Z,62.87
2018-08-24T10:18:18.030Z,62.9
2018-08-24T10:19:17.967Z,62.87
2018-08-24T10:20:17.929Z,62.9
2018-08-24T10:21:17.568Z,62.9
2018-08-24T10:22:17.694Z,62.88
2018-08-24T10:23:18.020Z,62.88
2018-08-24T10:24:17.818Z,62.85
2018-08-24T10:25:18.010Z,62.89
2018-08-24T10:26:17.898Z,62.13
2018-08-24T10:27:17.650Z,62.09
2018-08-24T10:28:17.882Z,62.7
2018-08-24T10:29:18.552Z,62.91
2018-08-24T10:30:17.995Z,62.75
2018-08-24T10:31:17.869Z,62.77
2018-08-24T10:32:17.699Z,63.62
2018-08-24T10:33:17.812Z,63.75
2018-08-24T10:34:17.829Z,63.65
2018-08-24T10:35:17.833Z,63.36
2018-08-24T10:36:17.873Z,64.17
2018-08-24T10:37:17.855Z,64.54
2018-08-24T10:38:17.696Z,64.71
2018-08-24T10:39:17.867Z,64.44
2018-08-24T10:40:17.929Z,64.94
2018-08-24T10:41:17.903Z,64.29
2018-08-24T10:42:17.925Z,64.18
2018-08-24T10:43:17.565Z,64.08
2018-08-24T10:44:17.834Z,64.06
2018-08-24T10:45:17.773Z,63.64
2018-08-24T10:46:18.397Z,63.79
2018-08-24T10:47:18.727Z,63.83
2018-08-24T10:48:17.631Z,64.04
2018-08-24T10:49:18.880Z,64.22
2018-08-24T10:50:17.820Z,64.25
2018-08-24T10:51:17.926Z,63.69
2018-08-24T10:52:17.687Z,63.99
2018-08-24T10:53:17.872Z,64.08
2018-08-24T10:54:17.676Z,63.95
2018-08-24T10:55:17.662Z,63.9
2018-08-24T10:56:18.415Z,63.82
2018-08-24T10:57:17.824Z,63.61
2018-08-24T10:58:17.688Z,63.59
2018-08-24T10:59:17.906Z,63.53
2018-08-24T11:00:17.784Z,63.39
2018-08-24T11:01:17.643Z,63.29
2018-08-24T11:02:17.751Z,63.09
2018-08-24T11:03:17.812Z,63.25
2018-08-24T11:04:17.600Z,63.18
2018-08-24T11:05:17.971Z,63.13
2018-08-24T11:06:17.713Z,63.13
2018-08-24T11:07:18.729Z,63.14
2018-08-24T11:08:17.780Z,63.08
2018-08-24T11:09:17.660Z,62.97
2018-08-24T11:10:17.789Z,62.94
2018-08-24T11:11:17.959Z,62.9
2018-08-24T11:12:17.914Z,62.88
2018-08-24T11:13:17.771Z,62.84
2018-08-24T11:14:17.730Z,62.79
2018-08-24T11:15:17.769Z,62.76
2018-08-24T11:16:17.781Z,62.75
2018-08-24T11:17:17.790Z,62.71
2018-08-24T11:18:17.848Z,62.64
2018-08-24T11:19:17.876Z,62.69
2018-08-24T11:20:17.605Z,62.7
2018-08-24T11:21:17.842Z,62.66
2018-08-24T11:22:18.046Z,62.68
2018-08-24T11:23:17.866Z,62.65
2018-08-24T11:24:17.829Z,62.64
2018-08-24T11:25:18.072Z,62.68
2018-08-24T11:26:18.807Z,62.68
2018-08-24T11:27:17.629Z,62.64
2018-08-24T11:28:17.811Z,62.65
2018-08-24T11:29:18.891Z,62.69
2018-08-24T11:30:17.578Z,62.69
2018-08-24T11:31:17.782Z,62.64
2018-08-24T11:32:17.841Z,62.7
2018-08-24T11:33:17.848Z,62.66
2018-08-24T11:34:17.975Z,62.69
2018-08-24T11:35:17.815Z,62.65
2018-08-24T11:36:18.653Z,62.65
2018-08-24T11:37:17.815Z,62.62
2018-08-24T11:38:17.619Z,62.66
2018-08-24T11:39:18.052Z,62.64
2018-08-24T11:40:17.486Z,62.65
2018-08-24T11:41:17.591Z,62.66
2018-08-24T11:42:18.916Z,62.61
2018-08-24T11:43:17.731Z,62.65
2018-08-24T11:44:17.601Z,62.64
2018-08-24T11:45:17.793Z,62.67
2018-08-24T11:46:17.724Z,62.68
2018-08-24T11:47:17.904Z,62.64
2018-08-24T11:48:17.599Z,62.64
2018-08-24T11:49:17.706Z,62.64
2018-08-24T11:50:17.864Z,62.69
2018-08-24T11:51:17.612Z,62.69
2018-08-24T11:52:17.862Z,62.67
2018-08-24T11:53:17.641Z,62.68
2018-08-24T11:54:17.946Z,62.7
2018-08-24T11:55:18.051Z,62.66
2018-08-24T11:56:18.113Z,62.7
2018-08-24T11:57:17.953Z,62.67
2018-08-24T11:58:17.636Z,62.69
2018-08-24T11:59:17.972Z,62.68
2018-08-24T12:00:17.931Z,62.7
2018-08-24T12:01:17.900Z,62.66
2018-08-24T12:02:17.562Z,62.67
2018-08-24T12:03:17.928Z,62.67
2018-08-24T12:04:17.786Z,62.69
2018-08-24T12:05:17.965Z,62.66
2018-08-24T12:06:17.685Z,62.66
2018-08-24T12:07:17.896Z,62.67
2018-08-24T12:08:18.781Z,62.68
2018-08-24T12:09:17.612Z,62.66
2018-08-24T12:10:17.834Z,62.66
2018-08-24T12:11:17.847Z,62.66
2018-08-24T12:12:18.931Z,62.67
2018-08-24T12:13:17.613Z,62.7
2018-08-24T12:14:18.742Z,62.65
2018-08-24T12:15:17.880Z,62.65
2018-08-24T12:16:17.763Z,62.72
2018-08-24T12:17:17.778Z,62.67
2018-08-24T12:18:18.483Z,62.69
2018-08-24T12:19:17.610Z,62.68
2018-08-24T12:20:17.897Z,62.67
2018-08-24T12:21:18.758Z,62.67
2018-08-24T12:22:17.645Z,62.69
2018-08-24T12:23:17.733Z,62.73
2018-08-24T12:24:18.117Z,62.7
2018-08-24T12:25:17.552Z,62.69
2018-08-24T12:26:17.884Z,62.68
2018-08-24T12:27:18.519Z,62.7
2018-08-24T12:28:17.802Z,62.7
2018-08-24T12:29:17.705Z,62.7
2018-08-24T12:30:17.824Z,62.72
2018-08-24T12:31:18.131Z,62.75
2018-08-24T12:32:17.585Z,62.7
2018-08-24T12:33:17.868Z,62.71
2018-08-24T12:34:17.612Z,62.73
2018-08-24T12:35:17.511Z,62.76
2018-08-24T12:36:17.977Z,62.75
2018-08-24T12:37:17.824Z,62.73
2018-08-24T12:38:18.243Z,62.75
2018-08-24T12:39:17.905Z,62.71
2018-08-24T12:40:17.900Z,62.73
2018-08-24T12:41:18.926Z,62.71
2018-08-24T12:42:17.967Z,62.72
2018-08-24T12:43:17.879Z,62.69
2018-08-24T12:44:17.814Z,62.7
2018-08-24T12:45:17.582Z,62.68
2018-08-24T12:46:17.625Z,62.66
2018-08-24T12:47:17.708Z,62.67
2018-08-24T12:48:18.017Z,62.7
2018-08-24T12:49:18.520Z,62.7
2018-08-24T12:50:17.679Z,62.66
2018-08-24T12:51:17.623Z,62.67
2018-08-24T12:52:17.627Z,62.66
2018-08-24T12:53:17.791Z,62.63
2018-08-24T12:54:17.690Z,62.62
2018-08-24T12:55:17.788Z,62.63